createdAt,value
2018-11-28T04:47:02.914Z,1
2018-11-28T04:48:02.906Z,1
2018-11-28T04:57:02.806Z,6.
2018-11-28T04:58:02.792Z,7.
2018-11-28T04:59:02.785Z,6.
2018-11-28T05:00:02.820Z,6.
2018-11-28T05:01:02.756Z,7.
2018-11-28T05:02:02.746Z,7.
2018-11-28T05:03:02.735Z,6.
2018-11-28T05:04:02.726Z,6.
2018-11-28T05:05:02.713Z,7.
2018-11-28T05:06:02.702Z,7.
2018-11-28T05:07:02.696Z,7.
2018-11-28T05:08:02.684Z,6.
2018-11-28T05:09:02.676Z,6.
2018-11-28T05:10:02.681Z,6.
2018-11-28T06:06:02.047Z,1
2018-11-28T06:11:01.986Z,1
2018-11-28T06:13:01.963Z,1
2018-11-28T06:27:01.809Z,1
2018-11-28T06:39:01.680Z,9.
2018-11-28T06:40:01.666Z,10.
2018-11-28T06:41:01.651Z,10.
2018-11-28T06:42:01.639Z,9.
2018-11-28T06:43:01.630Z,8.
2018-11-28T06:44:01.624Z,10.
2018-11-28T06:45:01.610Z,10.
2018-11-28T06:46:01.598Z,9.
2018-11-28T06:47:01.591Z,13.
2018-11-28T06:48:01.580Z,10.
2018-11-28T06:49:01.566Z,9.
2018-11-28T06:50:01.572Z,9.
2018-11-28T06:51:01.544Z,9.
2018-11-28T06:52:01.534Z,8.
2018-11-28T06:53:01.524Z,7.
2018-11-28T06:54:01.508Z,9.
2018-11-28T06:55:01.499Z,8.
2018-11-28T06:56:01.490Z,11.
2018-11-28T06:57:01.473Z,9.
2018-11-28T06:58:01.465Z,10.
2018-11-28T06:59:01.556Z,9.
2018-11-28T07:00:01.445Z,8.
2018-11-28T07:01:01.428Z,9.
2018-11-28T07:02:01.417Z,8.
2018-11-28T07:03:01.412Z,8.
2018-11-28T07:04:01.400Z,7.
2018-11-28T07:05:01.386Z,7.
2018-11-28T07:06:01.377Z,8.
2018-11-28T07:07:01.387Z,9.
2018-11-28T07:08:01.388Z,9.
2018-11-28T07:09:01.378Z,9.
2018-11-28T07:10:01.336Z,9.
2018-11-28T07:11:01.329Z,9.
2018-11-28T07:12:01.331Z,8.
2018-11-28T07:13:01.330Z,9.
2018-11-28T07:14:01.336Z,8.
2018-11-28T07:15:01.274Z,10.
2018-11-28T07:16:01.274Z,10.
2018-11-28T07:17:01.257Z,12.19
2018-11-28T07:18:01.242Z,10.80
2018-11-28T07:19:01.228Z,11.50
2018-11-28T07:20:01.218Z,10.80
2018-11-28T07:21:01.209Z,12.30
2018-11-28T07:22:01.197Z,9.80
2018-11-28T07:23:01.187Z,10.69
2018-11-28T07:24:01.175Z,10.89
2018-11-28T07:25:01.169Z,11.00
2018-11-28T07:26:01.160Z,11.69
2018-11-28T07:27:01.147Z,16.50
2018-11-28T07:28:01.128Z,19.79
2018-11-28T07:29:01.120Z,12.89
2018-11-28T07:30:01.106Z,14.10
2018-11-28T07:31:01.103Z,12.80
2018-11-28T07:32:01.088Z,12.10
2018-11-28T07:33:01.072Z,13.00
2018-11-28T07:34:01.064Z,10.50
2018-11-28T07:35:01.050Z,12.80
2018-11-28T07:36:01.045Z,13.10
2018-11-28T07:37:01.030Z,11.60
2018-11-28T07:38:01.026Z,13.30
2018-11-28T07:39:01.007Z,11.50
2018-11-28T07:40:00.995Z,12.30
2018-11-28T07:41:00.984Z,11.10
2018-11-28T07:42:00.974Z,11.60
2018-11-28T07:43:00.966Z,13.10
2018-11-28T07:44:00.954Z,10.30
2018-11-28T07:45:00.948Z,11.30
2018-11-28T07:46:00.927Z,11.19
2018-11-28T07:47:00.918Z,10.39
2018-11-28T07:48:00.917Z,20.70
2018-11-28T07:49:00.908Z,16.10
2018-11-28T07:50:00.889Z,15.80
2018-11-28T07:51:00.930Z,14.80
2018-11-28T07:52:00.867Z,11.10
2018-11-28T07:53:00.853Z,10.50
2018-11-28T07:54:00.845Z,10.19
2018-11-28T07:55:00.831Z,8.89
2018-11-28T07:56:00.823Z,9.30
2018-11-28T07:57:00.810Z,13.19
2018-11-28T07:58:00.801Z,9.30
2018-11-28T07:59:00.836Z,8.39
2018-11-28T08:00:00.774Z,9.30
2018-11-28T08:01:00.770Z,9.30
2018-11-28T08:02:00.754Z,10.80
2018-11-28T08:03:00.742Z,8.50
2018-11-28T08:04:00.746Z,12.00
2018-11-28T08:05:00.717Z,9.80
2018-11-28T08:06:00.714Z,15.39
2018-11-28T08:07:00.695Z,12.39
2018-11-28T08:08:00.689Z,19.50
2018-11-28T08:09:00.681Z,10.19
2018-11-28T08:10:00.663Z,8.89
2018-11-28T08:11:00.652Z,8.30
2018-11-28T08:12:00.654Z,9.60
2018-11-28T08:13:00.633Z,9.80
2018-11-28T08:14:00.624Z,10.10
2018-11-28T08:15:00.609Z,9.30
2018-11-28T08:16:00.602Z,9.39
2018-11-28T08:17:00.598Z,9.89
2018-11-28T08:18:00.579Z,9.00
2018-11-28T08:19:00.566Z,9.19
2018-11-28T08:20:00.554Z,8.10
2018-11-28T08:21:00.545Z,9.39
2018-11-28T08:22:00.535Z,9.30
2018-11-28T08:23:00.519Z,9.39
2018-11-28T08:24:00.509Z,8.50
2018-11-28T08:25:00.505Z,8.39
2018-11-28T08:26:00.496Z,9.00
2018-11-28T08:27:01.723Z,9.10
2018-11-28T08:28:00.519Z,9.19
2018-11-28T08:29:00.451Z,10.30
2018-11-28T08:30:00.441Z,10.69
2018-11-28T08:31:00.429Z,8.50
2018-11-28T08:32:00.420Z,8.50
2018-11-28T08:33:00.412Z,8.19
2018-11-28T08:34:00.397Z,9.50
2018-11-28T08:35:00.384Z,8.80
2018-11-28T08:36:00.375Z,9.19
2018-11-28T08:37:00.362Z,8.60
2018-11-28T08:38:00.351Z,8.30
2018-11-28T08:39:01.705Z,8.50
2018-11-28T08:40:00.329Z,9.30
2018-11-28T08:41:00.318Z,10.69
2018-11-28T08:42:00.309Z,7.40
2018-11-28T08:43:00.296Z,7.80
2018-11-28T08:44:00.286Z,11.50
2018-11-28T08:45:00.279Z,8.80
2018-11-28T08:46:00.267Z,8.60
2018-11-28T08:47:00.252Z,8.60
2018-11-28T08:48:00.240Z,8.89
2018-11-28T08:49:00.241Z,8.10
2018-11-28T08:50:00.217Z,7.90
2018-11-28T08:51:00.212Z,6.80
2018-11-28T08:52:00.197Z,7.30
2018-11-28T08:53:00.206Z,7.90
2018-11-28T08:54:00.174Z,7.80
2018-11-28T08:55:00.168Z,7.80
2018-11-28T08:56:00.151Z,8.00
2018-11-28T08:57:00.157Z,7.30
2018-11-28T08:58:00.128Z,7.00
2018-11-28T08:59:00.117Z,6.90
2018-11-28T09:00:00.107Z,7.40
2018-11-28T09:01:00.104Z,7.59
2018-11-28T09:02:00.087Z,6.80
2018-11-28T09:03:00.125Z,6.69
2018-11-28T09:04:00.061Z,7.50
2018-11-28T09:05:00.062Z,8.19
2018-11-28T09:06:00.039Z,7.69
2018-11-28T09:07:00.031Z,6.30
2018-11-28T09:08:00.026Z,6.59
2018-11-28T09:09:00.005Z,8.00
2018-11-28T09:09:59.994Z,7.90
2018-11-28T09:11:00.003Z,7.30
2018-11-28T09:11:59.974Z,8.10
2018-11-28T09:13:04.041Z,6.50
2018-11-28T09:14:04.396Z,7.00
2018-11-28T09:14:59.974Z,6.69
2018-11-28T09:15:59.930Z,7.40
2018-11-28T09:16:59.940Z,7.19
2018-11-28T09:17:59.952Z,7.80
2018-11-28T09:18:59.942Z,7.09
2018-11-28T09:19:59.889Z,6.80
2018-11-28T09:20:59.891Z,6.80
2018-11-28T09:21:59.862Z,6.40
2018-11-28T09:22:59.853Z,7.09
2018-11-28T09:23:59.841Z,7.59
2018-11-28T09:24:59.835Z,7.40
2018-11-28T09:25:59.818Z,6.50
2018-11-28T09:26:59.805Z,7.30
2018-11-28T09:27:59.794Z,6.30
2018-11-28T09:28:59.786Z,6.80
2018-11-28T09:29:59.770Z,6.80
2018-11-28T09:30:59.760Z,6.30
2018-11-28T09:31:59.748Z,5.80
2018-11-28T09:32:59.735Z,6.40
2018-11-28T09:33:59.725Z,7.19
2018-11-28T09:34:59.714Z,6.69
2018-11-28T09:35:59.714Z,7.19
2018-11-28T09:36:59.691Z,7.50
2018-11-28T09:37:59.678Z,6.80
2018-11-28T09:38:59.665Z,6.30
2018-11-28T09:39:59.654Z,6.80
2018-11-28T09:40:59.643Z,6.30
2018-11-28T09:41:59.634Z,8.30
2018-11-28T09:42:59.622Z,6.90
2018-11-28T09:43:59.610Z,7.80
2018-11-28T09:44:59.596Z,6.40
2018-11-28T09:45:59.590Z,7.30
2018-11-28T09:46:59.576Z,6.00
2018-11-28T09:47:59.565Z,6.80
2018-11-28T09:48:59.552Z,6.80
2018-11-28T09:49:59.540Z,6.50
2018-11-28T09:50:59.539Z,6.50
2018-11-28T09:51:59.518Z,6.90
2018-11-28T09:52:59.507Z,6.30
2018-11-28T09:53:59.496Z,6.59
2018-11-28T09:54:59.484Z,7.50
2018-11-28T09:55:59.473Z,6.69
2018-11-28T09:56:59.461Z,6.69
2018-11-28T09:57:59.451Z,6.40
2018-11-28T09:58:59.446Z,5.90
2018-11-28T09:59:59.434Z,6.50
2018-11-28T10:00:59.418Z,6.30
2018-11-28T10:01:59.410Z,5.40
2018-11-28T10:02:59.394Z,5.80
2018-11-28T10:03:59.388Z,6.00
2018-11-28T10:05:02.671Z,5.00
2018-11-28T10:05:59.364Z,4.30
2018-11-28T10:06:59.350Z,5.80
2018-11-28T10:07:59.339Z,5.90
2018-11-28T10:08:59.329Z,5.09
2018-11-28T10:09:59.318Z,4.80
2018-11-28T10:10:59.307Z,5.19
2018-11-28T10:11:59.297Z,4.00
2018-11-28T10:12:59.284Z,4.19
2018-11-28T10:13:59.275Z,5.19
2018-11-28T10:14:59.263Z,5.50
2018-11-28T10:15:59.253Z,4.40
2018-11-28T10:16:59.247Z,5.09
2018-11-28T10:17:59.231Z,3.79
2018-11-28T10:18:59.217Z,4.69
2018-11-28T10:19:59.213Z,4.69
2018-11-28T10:20:59.232Z,4.80
2018-11-28T10:21:59.184Z,4.80
2018-11-28T10:22:59.177Z,5.19
2018-11-28T10:23:59.162Z,4.90
2018-11-28T10:24:59.153Z,4.90
2018-11-28T10:25:59.145Z,3.40
2018-11-28T10:26:59.130Z,4.40
2018-11-28T10:27:59.158Z,4.09
2018-11-28T10:28:59.106Z,2.70
2018-11-28T10:29:59.102Z,4.59
2018-11-28T10:30:59.090Z,4.50
2018-11-28T10:31:59.080Z,3.79
2018-11-28T10:32:59.065Z,3.90
2018-11-28T10:33:59.052Z,4.00
2018-11-28T10:34:59.040Z,3.20
2018-11-28T10:35:59.032Z,3.40
2018-11-28T10:36:59.025Z,3.40
2018-11-28T10:37:59.012Z,2.70
2018-11-28T10:38:58.996Z,3.59
2018-11-28T10:39:58.985Z,3.79
2018-11-28T10:40:58.973Z,4.50
2018-11-28T10:41:58.966Z,3.59
2018-11-28T10:42:58.950Z,3.70
2018-11-28T10:43:58.948Z,4.30
2018-11-28T10:44:58.938Z,4.30
2018-11-28T10:45:58.918Z,4.09
2018-11-28T10:46:58.906Z,4.69
2018-11-28T10:47:58.896Z,5.59
2018-11-28T10:48:58.885Z,4.59
2018-11-28T10:49:58.883Z,4.09
2018-11-28T10:50:58.861Z,4.50
2018-11-28T10:52:00.261Z,4.90
2018-11-28T10:52:58.839Z,5.50
2018-11-28T10:53:58.827Z,4.40
2018-11-28T10:54:58.816Z,4.00
2018-11-28T10:55:58.806Z,3.50
2018-11-28T10:56:58.794Z,3.70
2018-11-28T10:57:58.782Z,2.29
2018-11-28T10:58:58.775Z,3.00
2018-11-28T10:59:58.767Z,3.09
2018-11-28T11:00:58.756Z,3.70
2018-11-28T11:01:58.744Z,3.40
2018-11-28T11:02:58.732Z,3.00
2018-11-28T11:03:58.717Z,2.79
2018-11-28T11:04:58.763Z,4.00
2018-11-28T11:05:58.696Z,3.59
2018-11-28T11:06:58.689Z,3.00
2018-11-28T11:07:58.695Z,4.00
2018-11-28T11:08:58.660Z,3.70
2018-11-28T11:09:58.654Z,3.40
2018-11-28T11:10:58.636Z,3.20
2018-11-28T11:11:58.624Z,3.09
2018-11-28T11:12:58.617Z,3.59
2018-11-28T11:13:58.601Z,3.00
2018-11-28T11:14:58.591Z,3.59
2018-11-28T11:15:58.625Z,3.50
2018-11-28T11:16:58.570Z,4.00
2018-11-28T11:18:02.117Z,4.19
2018-11-28T11:18:58.562Z,2.20
2018-11-28T11:19:58.540Z,4.09
2018-11-28T11:20:58.525Z,3.70
2018-11-28T11:21:58.512Z,4.50
2018-11-28T11:22:58.501Z,6.09
2018-11-28T11:23:58.488Z,5.00
2018-11-28T11:24:58.477Z,4.69
2018-11-28T11:25:58.469Z,4.19
2018-11-28T11:26:58.457Z,3.90
2018-11-28T11:27:58.443Z,3.00
2018-11-28T11:28:58.432Z,3.79
2018-11-28T11:29:58.457Z,4.30
2018-11-28T11:30:58.519Z,3.50
2018-11-28T11:31:58.399Z,3.20
2018-11-28T11:32:58.388Z,3.70
2018-11-28T11:33:58.378Z,3.70
2018-11-28T11:34:58.369Z,4.19
2018-11-28T11:35:58.352Z,4.40
2018-11-28T11:36:58.341Z,3.70
2018-11-28T11:37:58.333Z,3.70
2018-11-28T11:38:58.321Z,5.40
2018-11-28T11:39:58.310Z,3.59
2018-11-28T11:40:58.302Z,4.00
2018-11-28T11:41:58.290Z,3.70
2018-11-28T11:42:58.276Z,3.59
2018-11-28T11:43:58.263Z,3.00
2018-11-28T11:44:58.251Z,4.40
2018-11-28T11:45:58.240Z,5.80
2018-11-28T11:46:58.229Z,3.29
2018-11-28T11:47:58.219Z,3.70
2018-11-28T11:48:58.210Z,3.90
2018-11-28T11:49:58.200Z,4.50
2018-11-28T11:50:58.195Z,3.00
2018-11-28T11:51:58.180Z,3.40
2018-11-28T11:52:58.160Z,3.59
2018-11-28T11:53:58.149Z,3.70
2018-11-28T11:54:58.138Z,3.79
2018-11-28T11:55:58.132Z,3.50
2018-11-28T11:56:58.117Z,4.30
2018-11-28T11:57:58.105Z,3.50
2018-11-28T11:58:58.095Z,4.00
2018-11-28T11:59:58.087Z,3.79
2018-11-28T12:00:58.072Z,3.90
2018-11-28T12:01:58.061Z,4.09
2018-11-28T12:02:58.054Z,5.90
2018-11-28T12:03:58.085Z,3.79
2018-11-28T12:04:58.026Z,3.79
2018-11-28T12:05:58.016Z,4.00
2018-11-28T12:06:58.004Z,3.70
2018-11-28T12:07:57.998Z,3.79
2018-11-28T12:08:57.988Z,3.70
2018-11-28T12:09:57.973Z,3.40
2018-11-28T12:10:57.962Z,3.79
2018-11-28T12:11:57.949Z,2.90
2018-11-28T12:12:57.938Z,3.00
2018-11-28T12:13:57.929Z,3.09
2018-11-28T12:14:57.922Z,3.40
2018-11-28T12:15:57.954Z,3.40
2018-11-28T12:16:57.899Z,3.50
2018-11-28T12:17:57.883Z,3.09
2018-11-28T12:18:57.872Z,2.40
2018-11-28T12:19:57.866Z,3.09
2018-11-28T12:20:57.855Z,2.70
2018-11-28T12:21:57.839Z,4.09
2018-11-28T12:22:57.828Z,3.90
2018-11-28T12:23:57.821Z,4.90
2018-11-28T12:24:57.809Z,3.59
2018-11-28T12:25:57.793Z,3.09
2018-11-28T12:26:57.782Z,3.50
2018-11-28T12:27:57.772Z,3.29
2018-11-28T12:28:57.760Z,3.29
2018-11-28T12:29:57.753Z,3.50
2018-11-28T12:30:57.795Z,2.59
2018-11-28T12:31:57.727Z,2.70
2018-11-28T12:32:57.716Z,3.79
2018-11-28T12:33:57.708Z,4.40
2018-11-28T12:34:57.697Z,3.40
2018-11-28T12:35:57.684Z,3.59
2018-11-28T12:36:57.679Z,3.29
2018-11-28T12:37:57.662Z,3.29
2018-11-28T12:38:57.652Z,3.90
2018-11-28T12:39:57.644Z,3.20
2018-11-28T12:40:57.638Z,3.79
2018-11-28T12:41:57.620Z,3.59
2018-11-28T12:42:57.613Z,3.40
2018-11-28T12:43:57.594Z,3.09
2018-11-28T12:44:57.585Z,2.90
2018-11-28T12:45:57.577Z,3.50
2018-11-28T12:46:57.562Z,2.70
2018-11-28T12:47:57.558Z,3.59
2018-11-28T12:48:57.547Z,3.20
2018-11-28T12:49:57.529Z,3.40
2018-11-28T12:50:57.529Z,3.79
2018-11-28T12:51:57.532Z,3.20
2018-11-28T12:52:57.535Z,2.90
2018-11-28T12:53:57.540Z,3.50
2018-11-28T12:54:57.477Z,3.09
2018-11-28T12:55:57.482Z,3.09
2018-11-28T12:56:57.490Z,3.40
2018-11-28T12:57:57.559Z,3.29
2018-11-28T12:58:57.432Z,3.40
2018-11-28T12:59:57.424Z,2.90
2018-11-28T13:00:57.408Z,3.59
2018-11-28T13:01:57.399Z,4.19
2018-11-28T13:02:57.390Z,3.59
2018-11-28T13:03:57.380Z,3.40
2018-11-28T13:04:59.837Z,3.50
2018-11-28T13:05:57.350Z,3.59
2018-11-28T13:06:57.339Z,4.19
2018-11-28T13:07:57.329Z,3.40
2018-11-28T13:08:57.317Z,3.29
2018-11-28T13:09:57.307Z,3.70
2018-11-28T13:10:57.295Z,3.70
2018-11-28T13:12:00.025Z,3.70
2018-11-28T13:12:57.354Z,4.69
2018-11-28T13:13:57.261Z,3.40
2018-11-28T13:14:57.256Z,3.00
2018-11-28T13:15:57.239Z,3.09
2018-11-28T13:16:57.232Z,3.29
2018-11-28T13:17:57.221Z,3.29
2018-11-28T13:18:57.206Z,3.29
2018-11-28T13:19:59.069Z,2.29
2018-11-28T13:20:57.185Z,3.09
2018-11-28T13:21:57.170Z,3.59
2018-11-28T13:22:57.164Z,2.50
2018-11-28T13:23:57.147Z,2.40
2018-11-28T13:24:57.141Z,3.29
2018-11-28T13:25:57.125Z,2.90
2018-11-28T13:26:57.112Z,3.09
2018-11-28T13:27:57.100Z,2.59
2018-11-28T13:28:57.095Z,3.40
2018-11-28T13:29:57.090Z,2.90
2018-11-28T13:30:57.068Z,3.59
2018-11-28T13:31:57.058Z,2.09
2018-11-28T13:32:57.045Z,3.50
2018-11-28T13:33:57.035Z,3.09
2018-11-28T13:34:57.029Z,3.20
2018-11-28T13:35:57.010Z,4.00
2018-11-28T13:36:56.999Z,3.50
2018-11-28T13:37:56.990Z,2.50
2018-11-28T13:38:56.979Z,3.40
2018-11-28T13:39:56.968Z,3.79
2018-11-28T13:40:56.954Z,3.40
2018-11-28T13:41:56.941Z,4.69
2018-11-28T13:42:56.933Z,1.90
2018-11-28T13:43:56.918Z,3.40
2018-11-28T13:44:56.907Z,2.59
2018-11-28T13:45:56.900Z,3.70
2018-11-28T13:46:56.885Z,3.50
2018-11-28T13:47:56.876Z,3.09
2018-11-28T13:48:56.870Z,3.00
2018-11-28T13:49:56.855Z,3.29
2018-11-28T13:50:56.842Z,4.19
2018-11-28T13:51:56.837Z,3.50
2018-11-28T13:52:56.819Z,3.09
2018-11-28T13:53:56.817Z,3.50
2018-11-28T13:57:45.741Z,2.59
2018-11-28T13:58:45.731Z,3.00
2018-11-28T13:59:45.729Z,3.59
2018-11-28T14:00:45.711Z,5.00
2018-11-28T14:01:45.698Z,3.50
2018-11-28T14:02:45.684Z,3.50
2018-11-28T14:03:45.675Z,3.00
2018-11-28T14:04:45.664Z,3.09
2018-11-28T14:05:45.653Z,3.79
2018-11-28T14:06:45.640Z,3.50
2018-11-28T14:07:45.630Z,4.00
2018-11-28T14:08:45.618Z,3.50
2018-11-28T14:09:45.609Z,3.79
2018-11-28T14:10:45.597Z,3.40
2018-11-28T14:11:45.595Z,3.29
2018-11-28T14:12:45.580Z,2.79
2018-11-28T14:13:45.574Z,3.90
2018-11-28T14:14:45.559Z,3.40
2018-11-28T14:15:45.571Z,3.79
2018-11-28T14:16:45.539Z,3.50
2018-11-28T14:17:45.526Z,3.50
2018-11-28T14:18:45.512Z,1.70
2018-11-28T14:19:45.505Z,3.70
2018-11-28T14:20:45.490Z,3.50
2018-11-28T14:21:45.479Z,3.70
2018-11-28T14:22:45.468Z,3.29
2018-11-28T14:23:45.456Z,3.79
2018-11-28T14:24:45.453Z,3.59
2018-11-28T14:25:45.440Z,5.00
2018-11-28T14:26:45.423Z,4.09
2018-11-28T14:27:45.416Z,3.20
2018-11-28T14:28:45.401Z,4.19
2018-11-28T14:29:45.394Z,3.40
2018-11-28T14:30:45.383Z,3.50
2018-11-28T14:31:45.372Z,3.00
2018-11-28T14:32:45.356Z,3.20
2018-11-28T14:33:45.347Z,3.70
2018-11-28T14:34:45.334Z,3.59
2018-11-28T14:35:45.324Z,2.20
2018-11-28T14:36:45.311Z,3.09
2018-11-28T14:37:45.300Z,3.59
2018-11-28T14:38:45.291Z,3.70
2018-11-28T14:39:45.282Z,3.29
2018-11-28T14:40:45.266Z,3.79
2018-11-28T14:41:45.260Z,6.30
2018-11-28T14:42:45.250Z,3.40
2018-11-28T14:43:45.259Z,3.79
2018-11-28T14:44:45.221Z,3.20
2018-11-28T14:45:45.209Z,3.09
2018-11-28T14:46:45.239Z,4.19
2018-11-28T14:47:45.203Z,3.40
2018-11-28T14:48:45.176Z,3.79
2018-11-28T14:49:45.164Z,4.00
2018-11-28T14:50:45.159Z,3.50
2018-11-28T14:51:45.142Z,3.90
2018-11-28T14:52:45.132Z,3.59
2018-11-28T14:53:48.048Z,2.90
2018-11-28T14:54:45.108Z,3.00
2018-11-28T14:55:45.098Z,3.20
2018-11-28T14:56:45.087Z,3.70
2018-11-28T14:57:45.075Z,3.40
2018-11-28T14:58:45.064Z,3.29
2018-11-28T14:59:45.057Z,3.29
2018-11-28T15:00:45.042Z,3.29
2018-11-28T15:01:45.031Z,3.40
2018-11-28T15:02:45.019Z,3.40
2018-11-28T15:03:45.008Z,3.
2018-11-28T15:04:45.001Z,2.
2018-11-28T15:05:44.985Z,3.
2018-11-28T15:06:44.982Z,3.
2018-11-28T15:07:44.969Z,3.
2018-11-28T15:08:44.952Z,3.
2018-11-28T15:09:44.942Z,3.
2018-11-28T15:10:44.930Z,2.
2018-11-28T15:11:44.918Z,2.
2018-11-28T15:12:44.913Z,3.
2018-11-28T15:13:44.897Z,2.
2018-11-28T15:14:44.883Z,3.
2018-11-28T15:15:44.874Z,3.
2018-11-28T15:16:44.916Z,3.
2018-11-28T15:17:44.856Z,4.
2018-11-28T15:18:44.848Z,6.
2018-11-28T15:19:44.827Z,2.
2018-11-28T15:20:44.817Z,3.
2018-11-28T15:21:44.804Z,3.
2018-11-28T15:22:44.799Z,3.
2018-11-28T15:23:44.790Z,3.
2018-11-28T15:24:44.777Z,3.
2018-11-28T15:25:44.761Z,3.
2018-11-28T15:26:44.752Z,3.
2018-11-28T15:27:44.743Z,3.
2018-11-28T15:28:44.727Z,3.
2018-11-28T15:29:44.722Z,3.
2018-11-28T15:30:44.720Z,4.
2018-11-28T15:31:44.705Z,3.
2018-11-28T15:32:44.685Z,3.
2018-11-28T15:33:44.678Z,2.
2018-11-28T15:34:44.668Z,3.
2018-11-28T15:35:44.651Z,2.
2018-11-28T15:36:44.645Z,3.
2018-11-28T15:37:44.629Z,4.
2018-11-28T15:38:44.637Z,3.
2018-11-28T15:39:44.608Z,3.
2018-11-28T15:40:44.600Z,3.
2018-11-28T15:41:44.587Z,3.
2018-11-28T15:42:44.572Z,2.
2018-11-28T15:43:44.571Z,3.
2018-11-28T20:38:41.302Z,1
2018-11-28T20:50:41.167Z,1
2018-11-28T20:56:41.103Z,1
2018-11-28T20:58:41.079Z,1
2018-11-28T21:02:41.039Z,1
2018-11-28T21:04:41.014Z,1
2018-11-28T21:06:40.994Z,1
2018-11-28T21:16:40.886Z,1
2018-11-28T21:17:40.869Z,1
2018-11-28T21:20:40.842Z,1
2018-11-28T21:23:40.805Z,1
2018-11-28T21:24:40.793Z,1
2018-11-28T21:25:40.779Z,1
2018-11-28T21:28:40.746Z,1
2018-11-28T21:30:40.724Z,1
2018-11-28T21:32:40.702Z,1
2018-11-28T21:36:40.660Z,1
2018-11-28T21:37:40.644Z,1
2018-11-28T21:38:40.642Z,1
2018-11-28T21:39:40.630Z,1
2018-11-28T21:43:40.580Z,1
2018-11-28T21:45:40.565Z,1
2018-11-28T22:00:40.393Z,1
